createdAt,value
2018-08-09T06:28:10.369Z,7.83
2018-08-09T06:30:41.121Z,8.08
2018-08-09T07:17:06.304Z,8.10
2018-08-09T07:19:40.909Z,7.30
2018-08-09T07:22:09.004Z,7.45
2018-08-09T07:24:37.008Z,7.80
2018-08-09T07:27:05.098Z,7.67
2018-08-09T07:29:33.613Z,7.60
2018-08-09T07:32:01.741Z,8.03
2018-08-09T07:34:29.874Z,7.90
2018-08-09T07:36:57.870Z,8.18
2018-08-09T07:39:26.105Z,7.08
2018-08-09T07:41:54.488Z,8.05
2018-08-09T07:44:22.505Z,7.17
2018-08-09T07:46:50.549Z,7.53
2018-08-09T07:49:18.638Z,7.03
2018-08-09T07:51:46.726Z,7.70
2018-08-09T07:54:14.838Z,7.20
2018-08-09T07:56:42.846Z,7.22
2018-08-09T07:59:10.996Z,6.72
2018-08-09T08:01:39.081Z,6.92
2018-08-09T08:04:07.278Z,7.30
2018-08-09T08:06:35.223Z,7.17
2018-08-09T08:09:05.272Z,6.85
2018-08-09T08:11:33.422Z,7.08
2018-08-09T08:14:01.558Z,7.03
2018-08-09T08:16:31.682Z,6.62
2018-08-09T08:19:00.609Z,6.87
2018-08-09T08:21:29.831Z,7.45
2018-08-09T08:23:57.857Z,8.00
2018-08-09T08:26:26.576Z,7.28
2018-08-09T08:28:55.104Z,7.00
2018-08-09T08:31:23.529Z,7.17
2018-08-09T08:33:52.395Z,7.12
2018-08-09T08:36:20.919Z,6.95
2018-08-09T08:38:49.101Z,6.50
2018-08-09T08:41:17.469Z,6.67
2018-08-09T08:43:45.614Z,6.60
2018-08-09T08:46:14.088Z,6.33
2018-08-09T08:48:42.445Z,7.08
2018-08-09T08:51:10.665Z,7.05
2018-08-09T08:53:38.927Z,7.25
2018-08-09T08:56:07.151Z,6.75
2018-08-09T08:58:35.218Z,6.28
2018-08-09T09:01:04.440Z,7.08
2018-08-09T09:03:32.938Z,6.80
2018-08-09T09:06:01.205Z,5.87
2018-08-09T09:08:29.561Z,6.50
2018-08-09T09:10:57.933Z,6.28
2018-08-09T09:13:26.391Z,6.22
2018-08-09T09:15:54.901Z,6.12
2018-08-09T09:18:24.121Z,6.72
2018-08-09T09:20:52.144Z,5.65
2018-08-09T09:23:20.228Z,6.47
2018-08-09T09:25:48.468Z,5.72
2018-08-09T09:28:16.778Z,6.12
2018-08-09T09:30:45.032Z,5.85
2018-08-09T09:33:13.469Z,5.40
2018-08-09T09:35:58.453Z,5.67
2018-08-09T09:38:26.378Z,5.42
2018-08-09T09:40:54.682Z,4.92
2018-08-09T09:43:22.822Z,5.50
2018-08-09T09:45:51.024Z,5.58
2018-08-09T09:48:18.993Z,5.60
2018-08-09T09:50:47.060Z,5.67
2018-08-09T09:53:15.290Z,5.00
2018-08-09T09:55:43.429Z,6.05
2018-08-09T09:58:11.758Z,5.90
2018-08-09T10:00:45.470Z,5.37
2018-08-09T10:03:14.811Z,6.00
2018-08-09T10:05:42.891Z,6.47
2018-08-09T10:08:11.851Z,6.62
2018-08-09T10:10:40.146Z,6.95
2018-08-09T10:13:08.842Z,6.25
2018-08-09T10:15:37.333Z,6.33
2018-08-09T10:18:05.784Z,6.40
2018-08-09T10:20:34.111Z,6.55
2018-08-09T10:23:03.319Z,6.62
2018-08-09T10:25:31.353Z,5.35
2018-08-09T10:27:59.348Z,5.50
2018-08-09T10:30:27.352Z,5.87
2018-08-09T10:32:56.470Z,4.92
2018-08-09T10:35:24.428Z,5.65
2018-08-09T10:37:52.502Z,5.55
2018-08-09T10:40:20.710Z,5.00
2018-08-09T10:42:48.947Z,6.00
2018-08-09T10:45:16.998Z,5.53
2018-08-09T10:47:45.102Z,5.85
2018-08-09T10:50:13.113Z,5.22
2018-08-09T10:52:42.443Z,5.80
2018-08-09T10:55:10.630Z,5.20
2018-08-09T10:57:39.670Z,5.20
2018-08-09T11:00:10.303Z,5.53
2018-08-09T11:02:38.358Z,5.80
2018-08-09T11:05:07.193Z,5.97
2018-08-09T11:07:35.491Z,5.92
2018-08-09T11:10:05.019Z,5.95
2018-08-09T11:12:33.987Z,5.50
2018-08-09T11:15:03.430Z,4.90
2018-08-09T11:17:31.636Z,5.35
2018-08-09T11:19:59.701Z,4.25
2018-08-09T11:22:27.650Z,4.53
2018-08-09T11:24:56.842Z,4.92
2018-08-09T11:27:26.122Z,4.20
2018-08-09T11:29:54.403Z,5.12
2018-08-09T11:32:22.787Z,5.12
2018-08-09T11:34:51.698Z,5.97
2018-08-09T11:37:20.892Z,5.95
2018-08-09T11:39:49.200Z,5.47
2018-08-09T11:42:18.790Z,5.75
2018-08-09T11:44:47.124Z,5.55
2018-08-09T11:47:15.691Z,5.37
2018-08-09T11:49:44.129Z,6.05
2018-08-09T11:52:12.431Z,5.37
2018-08-09T11:54:40.915Z,5.70
2018-08-09T11:57:09.049Z,5.72
2018-08-09T11:59:37.566Z,5.12
2018-08-09T12:02:05.960Z,7.00
2018-08-09T12:04:34.322Z,5.80
2018-08-09T12:07:02.866Z,6.10
2018-08-09T12:09:30.994Z,5.65
2018-08-09T12:11:58.951Z,6.22
2018-08-09T12:14:27.261Z,6.53
2018-08-09T12:16:55.980Z,5.60
2018-08-09T12:19:24.600Z,5.72
2018-08-09T12:21:52.877Z,5.92
2018-08-09T12:24:21.380Z,5.72
2018-08-09T12:26:50.152Z,6.10
2018-08-09T12:29:18.919Z,5.70
2018-08-09T12:31:49.346Z,6.28
2018-08-09T12:34:19.018Z,5.53
2018-08-09T12:36:48.192Z,6.15
2018-08-09T12:39:16.469Z,6.25
2018-08-09T12:41:45.684Z,5.90
2018-08-09T12:44:13.952Z,6.20
2018-08-09T12:46:42.192Z,5.05
2018-08-09T23:54:27.262Z,1.63
